Buxton, Oregon
Current Conditions -  °F | °C
As of 11:53 AM on Monday 22 Dec 2014 (Local Time) from KHIO Reporting Station
Overcast Overcast  
Wind Chill: 52°   Ceiling: 1300
Heat Index: 52°   Visibility: 8mi
Dew Point: 48°   Wind: 7mph
Humidity: 86%   Direction: 160°SSE
Pressure: 30.36"   Gusts: NA
Location:  45.69°N, 123.19°W
Report Text: KHIO 221953Z 16006KT 8SM SCT009 BKN013 OVC120 11/09 A3036 RMK AO2 SLP280 T01110089
Loading
Personal Weather Stations






























Interactive Weather Map New forecast layout! Learn more

10-Day Weather Forecast

Advertisements
Track Severe Weather on mobile